createdAt,value
2022-07-25T00:01:12.061Z,58.95
2022-07-25T00:03:39.218Z,59.27
2022-07-25T00:06:06.677Z,59.50
2022-07-25T00:08:39.995Z,59.14
2022-07-25T00:11:06.476Z,59.05
2022-07-25T00:13:32.923Z,58.95
2022-07-25T00:15:59.500Z,59.37
2022-07-25T00:18:26.872Z,58.65
2022-07-25T00:20:53.363Z,58.75
2022-07-25T00:23:19.946Z,58.43
2022-07-25T00:25:46.398Z,58.42
2022-07-25T00:28:12.863Z,58.63
2022-07-25T00:30:39.333Z,58.44
2022-07-25T00:33:06.111Z,57.86
2022-07-25T00:35:32.538Z,57.67
2022-07-25T00:37:58.950Z,57.57
2022-07-25T00:40:25.444Z,57.62
2022-07-25T00:42:52.225Z,57.50
2022-07-25T00:45:18.749Z,57.04
2022-07-25T00:47:45.179Z,56.72
2022-07-25T00:50:11.735Z,56.83
2022-07-25T00:52:38.318Z,56.87
2022-07-25T00:55:05.284Z,56.55
2022-07-25T00:57:31.715Z,56.28
2022-07-25T00:59:58.329Z,56.30
2022-07-25T01:02:24.916Z,56.39
2022-07-25T01:04:51.406Z,56.47
2022-07-25T01:07:18.276Z,57.06
2022-07-25T01:09:44.782Z,56.78
2022-07-25T01:12:11.250Z,56.51
2022-07-25T01:14:38.372Z,56.15
2022-07-25T01:17:17.492Z,55.89
2022-07-25T01:19:43.958Z,56.43
2022-07-25T01:22:10.390Z,56.50
2022-07-25T01:24:37.240Z,56.56
2022-07-25T01:27:03.833Z,56.76
2022-07-25T01:29:30.256Z,56.54
2022-07-25T01:31:56.720Z,56.56
2022-07-25T01:34:23.155Z,56.42
2022-07-25T01:36:49.639Z,56.40
2022-07-25T01:39:16.080Z,56.10
2022-07-25T01:41:42.500Z,56.36
2022-07-25T01:44:09.317Z,56.30
2022-07-25T01:46:36.037Z,56.42
2022-07-25T01:49:11.795Z,56.18
2022-07-25T01:51:38.292Z,56.25
2022-07-25T01:54:06.745Z,56.04
2022-07-25T01:56:36.830Z,55.86
2022-07-25T01:59:03.300Z,55.84
2022-07-25T02:01:29.767Z,55.68
2022-07-25T02:03:56.296Z,55.74
2022-07-25T02:06:22.736Z,55.38
2022-07-25T02:08:49.179Z,55.81
2022-07-25T02:11:16.440Z,55.86
2022-07-25T02:13:43.049Z,55.96
2022-07-25T02:16:29.015Z,56.32
2022-07-25T02:18:56.591Z,56.18
2022-07-25T02:21:23.037Z,55.89
2022-07-25T02:23:55.408Z,55.88
2022-07-25T02:26:21.994Z,55.66
2022-07-25T02:28:49.985Z,56.03
2022-07-25T02:31:16.501Z,56.13
2022-07-25T02:33:43.538Z,56.28
2022-07-25T02:36:11.055Z,56.25
2022-07-25T02:38:38.040Z,56.10
2022-07-25T02:41:05.041Z,56.11
2022-07-25T02:43:31.544Z,56.17
2022-07-25T02:45:58.069Z,56.40
2022-07-25T02:48:24.569Z,56.49
2022-07-25T02:50:51.026Z,56.80
2022-07-25T02:53:28.940Z,57.15
2022-07-25T02:56:04.138Z,57.20
2022-07-25T02:58:32.452Z,57.73
2022-07-25T03:00:58.931Z,57.63
2022-07-25T03:03:25.401Z,58.47
2022-07-25T03:05:52.007Z,57.99
2022-07-25T03:08:18.450Z,58.88
2022-07-25T03:10:44.895Z,59.18
2022-07-25T03:13:11.318Z,58.86
2022-07-25T03:15:38.251Z,59.94
2022-07-25T03:18:04.698Z,59.27
2022-07-25T03:20:31.139Z,59.12
2022-07-25T03:22:57.605Z,58.80
2022-07-25T03:25:24.066Z,59.13
2022-07-25T03:27:50.816Z,59.87
2022-07-25T03:30:17.381Z,59.85
2022-07-25T03:32:43.823Z,59.97
2022-07-25T03:35:10.281Z,60.06
2022-07-25T03:37:36.714Z,59.90
2022-07-25T03:40:04.158Z,59.53
2022-07-25T03:42:35.360Z,59.62
2022-07-25T03:45:02.234Z,59.78
2022-07-25T03:47:28.669Z,59.41
2022-07-25T03:49:55.247Z,58.88
2022-07-25T03:52:21.684Z,59.77
2022-07-25T03:54:48.144Z,59.90
2022-07-25T03:57:14.580Z,61.69
2022-07-25T03:59:41.061Z,62.01
2022-07-25T04:02:07.793Z,60.77
2022-07-25T04:04:34.360Z,60.13
2022-07-25T04:07:00.821Z,60.26
2022-07-25T04:09:27.251Z,60.20
2022-07-25T04:11:58.831Z,59.66
2022-07-25T04:14:25.281Z,60.28
2022-07-25T04:16:51.825Z,59.83
2022-07-25T04:19:18.325Z,59.59
2022-07-25T04:21:45.105Z,59.49
2022-07-25T04:24:11.543Z,59.44
2022-07-25T04:26:37.983Z,59.43
2022-07-25T04:29:04.415Z,59.67
2022-07-25T04:31:31.094Z,59.31
2022-07-25T04:33:58.447Z,58.98
2022-07-25T04:36:24.988Z,58.93
2022-07-25T04:38:51.511Z,59.05
2022-07-25T04:41:17.977Z,58.91
2022-07-25T04:43:48.483Z,59.05
2022-07-25T04:46:20.237Z,58.59
2022-07-25T04:48:46.859Z,58.93
2022-07-25T04:51:14.610Z,58.88
2022-07-25T04:53:41.048Z,58.39
2022-07-25T04:56:10.447Z,58.57
2022-07-25T04:58:37.346Z,57.83
2022-07-25T05:01:03.805Z,57.86
2022-07-25T05:03:30.267Z,57.61
2022-07-25T05:05:56.728Z,57.24
2022-07-25T05:08:23.185Z,57.03
2022-07-25T05:10:49.608Z,56.99
2022-07-25T05:13:16.265Z,56.68
2022-07-25T05:15:42.726Z,56.39
2022-07-25T05:18:09.147Z,56.41
2022-07-25T05:20:35.584Z,56.30
2022-07-25T05:23:02.034Z,56.15
2022-07-25T05:25:29.273Z,56.55
2022-07-25T05:27:58.329Z,55.90
2022-07-25T05:30:25.073Z,56.06
2022-07-25T05:32:51.487Z,55.76
2022-07-25T05:35:17.912Z,54.79
2022-07-25T05:37:44.351Z,54.58
2022-07-25T05:40:10.949Z,54.20
2022-07-25T05:42:37.503Z,54.02
2022-07-25T05:45:04.701Z,53.71
2022-07-25T05:47:31.544Z,53.60
2022-07-25T05:49:58.043Z,53.29
2022-07-25T05:52:24.484Z,53.46
2022-07-25T05:54:51.185Z,53.13
2022-07-25T05:57:17.705Z,52.57
2022-07-25T06:00:09.688Z,51.82
2022-07-25T06:02:36.325Z,51.50
2022-07-25T06:05:03.427Z,51.51
2022-07-25T06:07:29.866Z,51.17
2022-07-25T06:09:56.332Z,50.36
2022-07-25T06:12:24.415Z,50.09
2022-07-25T06:14:51.165Z,49.61
2022-07-25T06:17:18.043Z,49.51
2022-07-25T06:19:44.465Z,49.22
2022-07-25T06:22:11.370Z,48.89
2022-07-25T06:24:38.522Z,48.64
2022-07-25T06:27:04.982Z,48.08
2022-07-25T06:29:31.412Z,47.78
2022-07-25T06:31:57.868Z,47.11
2022-07-25T06:34:28.524Z,46.94
2022-07-25T06:36:55.272Z,46.83
2022-07-25T06:39:21.703Z,46.60
2022-07-25T06:41:48.145Z,46.00
2022-07-25T06:44:17.294Z,45.94
2022-07-25T06:46:43.771Z,46.30
2022-07-25T06:49:10.348Z,45.50
2022-07-25T06:51:36.870Z,44.97
2022-07-25T06:54:04.059Z,45.10
2022-07-25T06:56:32.835Z,44.10
2022-07-25T06:59:00.318Z,44.69
2022-07-25T07:01:27.013Z,44.04
2022-07-25T07:03:53.567Z,43.86
2022-07-25T07:06:20.039Z,44.10
2022-07-25T07:08:46.498Z,43.72
2022-07-25T07:11:15.256Z,43.48
2022-07-25T07:13:41.717Z,43.47
2022-07-25T07:16:08.801Z,43.47
2022-07-25T07:18:35.578Z,43.69
2022-07-25T07:21:01.992Z,42.61
2022-07-25T07:23:28.980Z,42.04
2022-07-25T07:25:55.842Z,42.10
2022-07-25T07:28:22.460Z,42.41
2022-07-25T07:33:37.882Z,41.80
2022-07-25T07:36:04.521Z,41.72
2022-07-25T07:38:30.954Z,41.23
2022-07-25T07:40:57.417Z,40.97
2022-07-25T07:43:29.165Z,40.80
2022-07-25T07:45:56.878Z,40.77
2022-07-25T07:48:23.339Z,40.16
2022-07-25T07:50:49.773Z,40.00
2022-07-25T07:53:16.213Z,39.70
2022-07-25T07:55:45.501Z,39.79
2022-07-25T07:58:15.737Z,39.24
2022-07-25T08:00:44.148Z,39.68
2022-07-25T08:03:10.829Z,39.17
2022-07-25T08:05:43.308Z,39.95
2022-07-25T08:08:12.046Z,39.38
2022-07-25T08:10:40.952Z,38.93
2022-07-25T08:13:15.949Z,38.85
2022-07-25T08:15:44.645Z,38.76
2022-07-25T08:18:17.413Z,39.16
2022-07-25T08:20:48.513Z,38.48
2022-07-25T08:23:15.267Z,38.06
2022-07-25T08:25:42.466Z,39.28
2022-07-25T08:28:09.409Z,37.93
2022-07-25T08:30:45.332Z,37.57
2022-07-25T08:33:13.960Z,37.70
2022-07-25T08:35:45.449Z,37.90
2022-07-25T08:38:11.892Z,38.18
2022-07-25T08:40:38.510Z,38.34
2022-07-25T08:43:04.971Z,37.49
2022-07-25T08:45:33.259Z,37.36
2022-07-25T08:47:59.715Z,37.61
2022-07-25T08:50:28.576Z,36.78
2022-07-25T08:53:10.428Z,36.64
2022-07-25T08:55:45.076Z,37.00
2022-07-25T08:58:14.158Z,36.81
2022-07-25T09:00:41.871Z,36.62
2022-07-25T09:03:08.787Z,36.69
2022-07-25T09:05:37.254Z,37.57
2022-07-25T09:08:12.853Z,36.49
2022-07-25T09:10:42.336Z,36.54
2022-07-25T09:13:14.243Z,37.25
2022-07-25T09:15:50.155Z,36.92
2022-07-25T09:18:18.972Z,36.24
2022-07-25T09:21:11.766Z,36.51
2022-07-25T09:23:39.269Z,36.33
2022-07-25T09:26:13.535Z,35.61
2022-07-25T09:28:40.864Z,36.08
2022-07-25T09:31:07.399Z,35.71
2022-07-25T09:33:33.871Z,35.18
2022-07-25T09:36:11.187Z,35.08
2022-07-25T09:38:37.981Z,35.32
2022-07-25T09:41:04.561Z,35.75
2022-07-25T09:43:40.710Z,34.53
2022-07-25T09:46:08.158Z,35.08
2022-07-25T09:48:36.494Z,34.55
2022-07-25T09:51:03.514Z,35.06
2022-07-25T09:53:30.116Z,34.61
2022-07-25T09:55:57.476Z,34.79
2022-07-25T09:58:25.628Z,34.00
2022-07-25T10:01:05.500Z,34.96
2022-07-25T10:03:53.525Z,33.79
2022-07-25T10:06:24.953Z,34.30
2022-07-25T10:08:51.972Z,34.18
2022-07-25T10:11:27.729Z,33.97
2022-07-25T10:13:55.140Z,34.24
2022-07-25T10:16:27.180Z,34.20
2022-07-25T10:18:55.847Z,33.69
2022-07-25T10:21:27.212Z,33.49
2022-07-25T10:24:20.144Z,32.19
2022-07-25T10:26:53.504Z,32.71
2022-07-25T10:29:19.942Z,33.56
2022-07-25T10:31:50.945Z,32.92
2022-07-25T10:34:30.642Z,32.75
2022-07-25T10:37:09.702Z,32.69
2022-07-25T10:39:42.147Z,32.77
2022-07-25T10:42:13.505Z,32.49
2022-07-25T10:44:42.732Z,32.21
2022-07-25T10:47:12.089Z,31.33
2022-07-25T10:50:06.852Z,31.67
2022-07-25T10:52:31.641Z,32.31
2022-07-25T10:54:59.944Z,31.68
2022-07-25T10:57:31.695Z,31.64
2022-07-25T11:00:06.540Z,31.98
2022-07-25T11:02:33.242Z,30.77
2022-07-25T11:05:04.172Z,30.86
2022-07-25T11:07:36.015Z,31.23
2022-07-25T11:10:05.500Z,31.53
2022-07-25T11:12:32.402Z,31.62
2022-07-25T11:15:04.518Z,30.95
2022-07-25T11:17:31.066Z,31.67
2022-07-25T11:20:07.134Z,31.17
2022-07-25T11:22:34.489Z,30.92
2022-07-25T11:25:01.782Z,30.95
2022-07-25T11:27:33.247Z,31.17
2022-07-25T11:30:19.874Z,30.58
2022-07-25T11:32:51.993Z,30.27
2022-07-25T11:35:22.546Z,30.81
2022-07-25T11:37:50.763Z,30.61
2022-07-25T11:40:18.730Z,30.62
2022-07-25T11:42:48.380Z,30.37
2022-07-25T11:45:25.515Z,30.17
2022-07-25T11:48:09.859Z,29.70
2022-07-25T11:50:41.673Z,29.76
2022-07-25T11:53:10.821Z,29.58
2022-07-25T11:55:42.817Z,29.71
2022-07-25T11:58:10.961Z,29.16
2022-07-25T12:00:48.587Z,28.94
2022-07-25T12:03:20.189Z,29.23
2022-07-25T12:05:48.641Z,29.40
2022-07-25T12:08:20.356Z,28.99
2022-07-25T12:10:49.103Z,28.95
2022-07-25T12:13:26.969Z,28.19
2022-07-25T12:15:55.723Z,28.14
2022-07-25T12:18:22.198Z,28.56
2022-07-25T12:20:48.661Z,28.39
2022-07-25T12:23:15.115Z,27.97
2022-07-25T12:25:43.930Z,27.99
2022-07-25T12:28:11.418Z,28.28
2022-07-25T12:30:41.469Z,28.14
2022-07-25T12:33:07.945Z,28.46
2022-07-25T12:35:37.170Z,28.23
2022-07-25T12:38:04.546Z,28.15
2022-07-25T12:40:31.147Z,28.27
2022-07-25T12:42:58.818Z,27.92
2022-07-25T12:45:25.704Z,27.75
2022-07-25T12:47:52.122Z,28.08
2022-07-25T12:50:18.576Z,27.73
2022-07-25T12:52:45.683Z,28.09
2022-07-25T12:55:18.621Z,27.59
2022-07-25T12:57:46.335Z,28.16
2022-07-25T13:00:15.889Z,27.98
2022-07-25T13:02:42.443Z,28.25
2022-07-25T13:05:09.408Z,28.45
2022-07-25T13:07:36.170Z,28.45
2022-07-25T13:10:03.822Z,28.62
2022-07-25T13:12:30.266Z,28.93
2022-07-25T13:14:56.760Z,28.54
2022-07-25T13:17:27.306Z,29.04
2022-07-25T13:19:55.370Z,29.24
2022-07-25T13:22:21.808Z,29.56
2022-07-25T13:24:48.256Z,28.50
2022-07-25T13:27:15.192Z,28.75
2022-07-25T13:29:41.627Z,28.51
2022-07-25T13:32:10.176Z,28.54
2022-07-25T13:34:36.803Z,29.04
2022-07-25T13:37:04.493Z,28.67
2022-07-25T13:39:31.038Z,29.00
2022-07-25T13:41:57.510Z,28.72
2022-07-25T13:44:23.935Z,28.41
2022-07-25T13:46:50.595Z,28.17
2022-07-25T13:49:18.103Z,27.89
2022-07-25T13:51:45.545Z,27.92
2022-07-25T13:54:12.407Z,27.45
2022-07-25T13:56:38.913Z,27.32
2022-07-25T13:59:05.721Z,27.49
2022-07-25T14:01:32.337Z,27.53
2022-07-25T14:03:58.888Z,27.85
2022-07-25T14:06:25.331Z,27.26
2022-07-25T14:08:51.760Z,27.49
2022-07-25T14:11:18.190Z,27.25
2022-07-25T14:13:45.229Z,26.96
2022-07-25T14:16:16.345Z,27.18
2022-07-25T14:18:42.762Z,27.27
2022-07-25T14:21:09.255Z,27.33
2022-07-25T14:23:35.692Z,27.38
2022-07-25T14:26:02.155Z,27.33
2022-07-25T14:28:29.672Z,27.08
2022-07-25T14:30:56.592Z,27.70
2022-07-25T14:33:23.028Z,27.62
2022-07-25T14:35:49.483Z,27.55
2022-07-25T14:38:15.942Z,27.86
2022-07-25T14:40:42.698Z,27.63
2022-07-25T14:43:09.124Z,28.05
2022-07-25T14:45:36.983Z,27.83
2022-07-25T14:48:06.148Z,28.10
2022-07-25T14:50:32.567Z,28.18
2022-07-25T14:52:58.999Z,28.09
2022-07-25T14:55:25.793Z,28.20
2022-07-25T14:57:52.352Z,28.34
2022-07-25T15:00:18.859Z,28.01
2022-07-25T15:02:45.346Z,28.56
2022-07-25T15:05:11.850Z,28.70
2022-07-25T15:07:38.333Z,28.84
2022-07-25T15:10:05.308Z,28.82
2022-07-25T15:12:31.816Z,28.72
2022-07-25T15:14:58.265Z,28.89
2022-07-25T15:17:24.776Z,28.96
2022-07-25T15:19:51.309Z,29.07
2022-07-25T15:22:17.811Z,28.49
2022-07-25T15:25:21.436Z,28.91
2022-07-25T15:27:31.132Z,28.64
2022-07-25T15:29:58.232Z,29.18
2022-07-25T15:32:24.671Z,29.51
2022-07-25T15:34:51.142Z,29.53
2022-07-25T15:37:17.610Z,29.75
2022-07-25T15:39:45.341Z,29.14
2022-07-25T15:42:12.187Z,29.27
2022-07-25T15:44:38.620Z,28.40
2022-07-25T15:47:06.728Z,28.17
2022-07-25T15:49:33.386Z,28.50
2022-07-25T15:52:00.157Z,28.51
2022-07-25T15:54:29.501Z,28.69
2022-07-25T15:56:56.363Z,28.41
2022-07-25T15:59:22.991Z,28.40
2022-07-25T16:01:49.420Z,28.48
2022-07-25T16:04:16.002Z,28.68
2022-07-25T16:06:42.608Z,28.62
2022-07-25T16:09:09.257Z,28.77
2022-07-25T16:11:38.182Z,28.46
2022-07-25T16:14:05.387Z,28.39
2022-07-25T16:16:31.900Z,28.63
2022-07-25T16:18:58.352Z,28.83
2022-07-25T16:21:24.820Z,29.40
2022-07-25T16:23:51.268Z,28.84
2022-07-25T16:26:17.738Z,28.88
2022-07-25T16:28:44.239Z,29.32
2022-07-25T16:31:10.796Z,29.45
2022-07-25T16:33:37.991Z,29.49
2022-07-25T16:36:04.889Z,33.15
2022-07-25T16:38:31.600Z,34.91
2022-07-25T16:40:58.033Z,37.04
2022-07-25T16:43:24.777Z,38.88
2022-07-25T16:45:51.541Z,39.06
2022-07-25T16:48:18.153Z,40.99
2022-07-25T16:50:44.662Z,41.71
2022-07-25T16:53:11.091Z,42.03
2022-07-25T16:55:38.347Z,42.88
2022-07-25T16:58:04.827Z,43.14
2022-07-25T17:00:31.282Z,43.57
2022-07-25T17:02:58.497Z,43.94
2022-07-25T17:05:25.051Z,44.10
2022-07-25T17:07:57.245Z,44.36
2022-07-25T17:10:25.230Z,44.39
2022-07-25T17:12:51.691Z,44.39
2022-07-25T17:15:18.195Z,43.29
2022-07-25T17:17:44.613Z,43.08
2022-07-25T17:20:11.568Z,42.65
2022-07-25T17:22:38.784Z,42.12
2022-07-25T17:25:06.428Z,42.81
2022-07-25T17:27:32.872Z,42.96
2022-07-25T17:29:59.299Z,43.99
2022-07-25T17:32:29.744Z,46.59
2022-07-25T17:34:57.244Z,47.77
2022-07-25T17:37:24.341Z,47.18
2022-07-25T17:39:50.851Z,47.43
2022-07-25T17:42:22.092Z,46.25
2022-07-25T17:44:50.135Z,46.07
2022-07-25T17:47:16.671Z,46.21
2022-07-25T17:49:43.127Z,46.77
2022-07-25T17:52:12.209Z,48.10
2022-07-25T17:54:42.602Z,49.92
2022-07-25T17:57:08.995Z,50.20
2022-07-25T17:59:35.645Z,49.95
2022-07-25T18:02:03.050Z,49.35
2022-07-25T18:04:29.623Z,48.68
2022-07-25T18:06:57.244Z,47.99
2022-07-25T18:09:24.216Z,47.98
2022-07-25T18:11:50.946Z,47.99
2022-07-25T18:14:17.363Z,47.46
2022-07-25T18:16:45.384Z,47.13
2022-07-25T18:19:12.200Z,47.07
2022-07-25T18:21:38.727Z,47.12
2022-07-25T18:24:05.971Z,46.88
2022-07-25T18:26:33.656Z,46.74
2022-07-25T18:29:00.302Z,46.38
2022-07-25T18:31:26.794Z,46.95
2022-07-25T18:33:53.253Z,46.67
2022-07-25T18:36:20.437Z,46.33
2022-07-25T18:38:48.364Z,46.23
2022-07-25T18:41:30.613Z,46.34
2022-07-25T18:43:57.342Z,46.46
2022-07-25T18:46:24.228Z,46.65
2022-07-25T18:48:51.304Z,46.27
2022-07-25T18:51:17.875Z,46.25
2022-07-25T18:53:47.938Z,46.66
2022-07-25T18:56:15.019Z,47.13
2022-07-25T18:58:41.434Z,46.88
2022-07-25T19:01:09.224Z,48.05
2022-07-25T19:03:37.360Z,47.88
2022-07-25T19:06:04.537Z,48.97
2022-07-25T19:08:31.052Z,49.01
2022-07-25T19:10:57.532Z,49.67
2022-07-25T19:13:47.697Z,49.57
2022-07-25T19:16:11.837Z,50.09
2022-07-25T19:18:39.268Z,50.02
2022-07-25T19:21:05.919Z,50.27
2022-07-25T19:23:32.622Z,51.26
2022-07-25T19:26:00.365Z,51.24
2022-07-25T19:28:28.788Z,51.90
2022-07-25T19:30:56.451Z,52.04
2022-07-25T19:33:23.024Z,53.10
2022-07-25T19:35:49.548Z,53.75
2022-07-25T19:38:15.963Z,56.32
2022-07-25T19:40:42.912Z,54.39
2022-07-25T19:43:09.423Z,54.46
2022-07-25T19:45:36.369Z,54.51
2022-07-25T19:48:02.809Z,54.47
2022-07-25T19:50:29.312Z,55.10
2022-07-25T19:52:55.840Z,55.93
2022-07-25T19:55:22.384Z,55.70
2022-07-25T19:57:48.800Z,58.27
2022-07-25T20:00:15.623Z,58.00
2022-07-25T20:02:42.108Z,59.24
2022-07-25T20:05:09.982Z,59.96
2022-07-25T20:07:36.431Z,60.44
2022-07-25T20:10:04.356Z,62.77
2022-07-25T20:12:33.397Z,63.26
2022-07-25T20:14:59.910Z,63.91
2022-07-25T20:17:26.769Z,64.84
2022-07-25T20:19:53.363Z,65.32
2022-07-25T20:22:19.947Z,66.96
2022-07-25T20:24:46.438Z,67.34
2022-07-25T20:27:12.872Z,70.10
2022-07-25T20:29:39.312Z,69.04
2022-07-25T20:32:05.962Z,70.21
2022-07-25T20:34:32.633Z,71.11
2022-07-25T20:36:59.060Z,70.87
2022-07-25T20:39:26.367Z,70.80
2022-07-25T20:41:55.249Z,71.69
2022-07-25T20:44:21.804Z,71.87
2022-07-25T20:46:48.239Z,71.04
2022-07-25T20:49:14.720Z,71.04
2022-07-25T20:51:41.208Z,70.41
2022-07-25T20:54:07.888Z,70.31
2022-07-25T20:56:34.316Z,70.96
2022-07-25T20:59:00.786Z,70.65
2022-07-25T21:01:27.333Z,70.40
2022-07-25T21:03:53.831Z,70.10
2022-07-25T21:06:20.278Z,70.23
2022-07-25T21:08:53.821Z,71.23
2022-07-25T21:11:20.284Z,71.31
2022-07-25T21:13:46.767Z,71.15
2022-07-25T21:16:13.424Z,71.04
2022-07-25T21:18:39.911Z,71.85
2022-07-25T21:21:11.722Z,71.12
2022-07-25T21:23:38.866Z,71.16
2022-07-25T21:26:05.721Z,72.10
2022-07-25T21:28:32.232Z,72.56
2022-07-25T21:30:58.694Z,72.81
2022-07-25T21:33:25.196Z,73.27
2022-07-25T21:35:53.666Z,73.05
2022-07-25T21:38:27.407Z,73.19
2022-07-25T21:40:55.361Z,74.56
2022-07-25T21:43:21.852Z,76.99
2022-07-25T21:45:48.373Z,78.61
2022-07-25T21:48:14.943Z,80.88
2022-07-25T21:50:44.014Z,82.95
2022-07-25T21:53:13.729Z,83.02
2022-07-25T21:55:40.621Z,83.69
2022-07-25T21:58:07.823Z,83.31
2022-07-25T22:00:40.038Z,85.27
2022-07-25T22:03:11.786Z,86.43
2022-07-25T22:05:38.249Z,84.72
2022-07-25T22:08:05.116Z,84.70
2022-07-25T22:10:31.634Z,84.77
2022-07-25T22:12:58.074Z,87.55
2022-07-25T22:15:24.579Z,86.70
2022-07-25T22:17:51.018Z,87.59
2022-07-25T22:20:19.320Z,88.18
2022-07-25T22:22:48.002Z,87.69
2022-07-25T22:25:15.537Z,87.07
2022-07-25T22:27:43.094Z,87.98
2022-07-25T22:30:14.702Z,88.44
2022-07-25T22:32:44.762Z,89.51
2022-07-25T22:35:12.494Z,89.12
2022-07-25T22:37:38.970Z,88.47
2022-07-25T22:40:06.051Z,88.02
2022-07-25T22:42:32.484Z,89.34
2022-07-25T22:44:58.953Z,87.28
2022-07-25T22:47:25.390Z,89.21
2022-07-25T22:49:51.823Z,89.18
2022-07-25T22:52:18.300Z,89.15
2022-07-25T22:54:44.791Z,89.05
2022-07-25T22:57:11.211Z,89.19
2022-07-25T22:59:37.666Z,89.29
2022-07-25T23:02:04.557Z,89.13
2022-07-25T23:04:31.051Z,88.80
2022-07-25T23:06:57.589Z,89.49
2022-07-25T23:09:24.037Z,89.08
2022-07-25T23:11:50.671Z,90.44
2022-07-25T23:14:17.111Z,90.60
2022-07-25T23:16:43.640Z,91.10
2022-07-25T23:19:10.556Z,90.22
2022-07-25T23:21:37.195Z,90.97
2022-07-25T23:24:05.690Z,90.53
2022-07-25T23:26:32.116Z,90.54
2022-07-25T23:28:58.563Z,90.09
2022-07-25T23:31:25.039Z,90.53
2022-07-25T23:33:51.501Z,92.16
2022-07-25T23:36:17.935Z,91.76
2022-07-25T23:38:44.378Z,91.57
2022-07-25T23:41:10.814Z,91.19
2022-07-25T23:43:56.555Z,90.67
2022-07-25T23:46:27.894Z,91.56
2022-07-25T23:48:57.362Z,92.37
2022-07-25T23:51:23.882Z,91.38
2022-07-25T23:53:50.394Z,91.92
2022-07-25T23:56:20.817Z,91.65
2022-07-25T23:58:49.870Z,91.74
